sensor_id;sensor_type;location;lat;lon;timestamp;P1;durP1;ratioP1;P2;durP2;ratioP2
48042;SDS011;33988;47.992;8.820;2023-08-24T00:01:11;3.78;;;2.90;;
48042;SDS011;33988;47.992;8.820;2023-08-24T00:03:39;3.13;;;2.78;;
48042;SDS011;33988;47.992;8.820;2023-08-24T00:06:06;3.33;;;2.97;;
48042;SDS011;33988;47.992;8.820;2023-08-24T00:08:36;3.35;;;2.95;;
48042;SDS011;33988;47.992;8.820;2023-08-24T00:11:03;4.65;;;2.88;;
48042;SDS011;33988;47.992;8.820;2023-08-24T00:13:32;6.45;;;3.17;;
48042;SDS011;33988;47.992;8.820;2023-08-24T00:15:59;5.18;;;3.15;;
48042;SDS011;33988;47.992;8.820;2023-08-24T00:18:26;3.58;;;2.78;;
48042;SDS011;33988;47.992;8.820;2023-08-24T00:20:53;3.15;;;2.60;;
48042;SDS011;33988;47.992;8.820;2023-08-24T00:23:22;4.45;;;3.20;;
48042;SDS011;33988;47.992;8.820;2023-08-24T00:25:51;3.85;;;3.15;;
48042;SDS011;33988;47.992;8.820;2023-08-24T00:28:21;5.80;;;2.88;;
48042;SDS011;33988;47.992;8.820;2023-08-24T00:30:48;3.50;;;3.13;;
48042;SDS011;33988;47.992;8.820;2023-08-24T00:33:17;4.07;;;3.28;;
48042;SDS011;33988;47.992;8.820;2023-08-24T00:35:45;4.82;;;2.67;;
48042;SDS011;33988;47.992;8.820;2023-08-24T00:38:14;3.20;;;2.90;;
48042;SDS011;33988;47.992;8.820;2023-08-24T00:40:42;3.75;;;3.45;;
48042;SDS011;33988;47.992;8.820;2023-08-24T00:43:10;3.33;;;2.85;;
48042;SDS011;33988;47.992;8.820;2023-08-24T00:45:38;4.13;;;3.08;;
48042;SDS011;33988;47.992;8.820;2023-08-24T00:48:07;4.15;;;2.95;;
48042;SDS011;33988;47.992;8.820;2023-08-24T00:50:34;3.20;;;2.88;;
48042;SDS011;33988;47.992;8.820;2023-08-24T00:53:01;3.38;;;2.95;;
48042;SDS011;33988;47.992;8.820;2023-08-24T00:55:29;3.90;;;2.70;;
48042;SDS011;33988;47.992;8.820;2023-08-24T00:57:58;3.53;;;2.90;;
48042;SDS011;33988;47.992;8.820;2023-08-24T01:00:28;3.85;;;3.10;;
48042;SDS011;33988;47.992;8.820;2023-08-24T01:02:57;3.13;;;2.83;;
48042;SDS011;33988;47.992;8.820;2023-08-24T01:05:26;3.88;;;3.00;;
48042;SDS011;33988;47.992;8.820;2023-08-24T01:07:54;3.40;;;3.10;;
48042;SDS011;33988;47.992;8.820;2023-08-24T01:10:21;4.93;;;3.17;;
48042;SDS011;33988;47.992;8.820;2023-08-24T01:12:57;6.18;;;3.13;;
48042;SDS011;33988;47.992;8.820;2023-08-24T01:15:37;3.22;;;2.92;;
48042;SDS011;33988;47.992;8.820;2023-08-24T01:18:17;4.03;;;3.03;;
48042;SDS011;33988;47.992;8.820;2023-08-24T01:20:46;3.90;;;2.92;;
48042;SDS011;33988;47.992;8.820;2023-08-24T01:28:38;4.72;;;2.95;;
48042;SDS011;33988;47.992;8.820;2023-08-24T01:31:08;5.13;;;3.50;;
48042;SDS011;33988;47.992;8.820;2023-08-24T01:33:35;3.55;;;3.20;;
48042;SDS011;33988;47.992;8.820;2023-08-24T01:36:05;5.03;;;3.08;;
48042;SDS011;33988;47.992;8.820;2023-08-24T01:38:32;3.17;;;2.80;;
48042;SDS011;33988;47.992;8.820;2023-08-24T01:43:46;4.88;;;2.90;;
48042;SDS011;33988;47.992;8.820;2023-08-24T01:46:19;5.20;;;3.08;;
48042;SDS011;33988;47.992;8.820;2023-08-24T01:48:48;3.50;;;2.97;;
48042;SDS011;33988;47.992;8.820;2023-08-24T01:51:20;3.65;;;3.03;;
48042;SDS011;33988;47.992;8.820;2023-08-24T01:56:18;3.03;;;2.72;;
48042;SDS011;33988;47.992;8.820;2023-08-24T01:58:48;9.40;;;3.55;;
48042;SDS011;33988;47.992;8.820;2023-08-24T02:01:16;4.40;;;2.78;;
48042;SDS011;33988;47.992;8.820;2023-08-24T02:03:43;3.42;;;3.13;;
48042;SDS011;33988;47.992;8.820;2023-08-24T02:06:10;8.10;;;3.58;;
48042;SDS011;33988;47.992;8.820;2023-08-24T02:08:39;5.72;;;3.35;;
48042;SDS011;33988;47.992;8.820;2023-08-24T02:11:07;3.55;;;3.25;;
48042;SDS011;33988;47.992;8.820;2023-08-24T02:13:34;4.03;;;3.63;;
48042;SDS011;33988;47.992;8.820;2023-08-24T02:16:04;8.55;;;2.97;;
48042;SDS011;33988;47.992;8.820;2023-08-24T02:18:35;4.55;;;3.55;;
48042;SDS011;33988;47.992;8.820;2023-08-24T02:21:08;4.80;;;3.17;;
48042;SDS011;33988;47.992;8.820;2023-08-24T02:23:38;4.10;;;2.95;;
48042;SDS011;33988;47.992;8.820;2023-08-24T02:26:05;4.20;;;3.20;;
48042;SDS011;33988;47.992;8.820;2023-08-24T02:28:35;3.65;;;3.13;;
48042;SDS011;33988;47.992;8.820;2023-08-24T02:31:06;5.57;;;3.35;;
48042;SDS011;33988;47.992;8.820;2023-08-24T02:33:35;5.68;;;2.97;;
48042;SDS011;33988;47.992;8.820;2023-08-24T02:36:04;3.50;;;3.20;;
48042;SDS011;33988;47.992;8.820;2023-08-24T02:38:32;3.65;;;3.20;;
48042;SDS011;33988;47.992;8.820;2023-08-24T02:41:05;3.42;;;3.08;;
48042;SDS011;33988;47.992;8.820;2023-08-24T02:43:36;3.17;;;2.72;;
48042;SDS011;33988;47.992;8.820;2023-08-24T02:46:04;4.57;;;2.88;;
48042;SDS011;33988;47.992;8.820;2023-08-24T02:48:36;5.93;;;3.17;;
48042;SDS011;33988;47.992;8.820;2023-08-24T02:51:04;3.22;;;2.92;;
48042;SDS011;33988;47.992;8.820;2023-08-24T02:53:34;5.10;;;3.03;;
48042;SDS011;33988;47.992;8.820;2023-08-24T02:56:02;3.40;;;3.10;;
48042;SDS011;33988;47.992;8.820;2023-08-24T02:58:29;2.97;;;2.78;;
48042;SDS011;33988;47.992;8.820;2023-08-24T03:01:04;3.53;;;3.13;;
48042;SDS011;33988;47.992;8.820;2023-08-24T03:03:34;4.25;;;2.95;;
48042;SDS011;33988;47.992;8.820;2023-08-24T03:06:05;3.55;;;3.13;;
48042;SDS011;33988;47.992;8.820;2023-08-24T03:08:35;3.63;;;3.13;;
48042;SDS011;33988;47.992;8.820;2023-08-24T03:11:03;3.08;;;2.75;;
48042;SDS011;33988;47.992;8.820;2023-08-24T03:13:30;3.70;;;3.30;;
48042;SDS011;33988;47.992;8.820;2023-08-24T03:16:05;3.88;;;3.47;;
48042;SDS011;33988;47.992;8.820;2023-08-24T03:18:32;3.00;;;2.70;;
48042;SDS011;33988;47.992;8.820;2023-08-24T03:21:00;3.42;;;3.00;;
48042;SDS011;33988;47.992;8.820;2023-08-24T03:23:27;3.70;;;3.40;;
48042;SDS011;33988;47.992;8.820;2023-08-24T03:25:59;3.30;;;3.00;;
48042;SDS011;33988;47.992;8.820;2023-08-24T03:28:26;3.80;;;3.10;;
48042;SDS011;33988;47.992;8.820;2023-08-24T03:30:55;3.33;;;2.92;;
48042;SDS011;33988;47.992;8.820;2023-08-24T03:33:22;5.25;;;3.08;;
48042;SDS011;33988;47.992;8.820;2023-08-24T03:35:49;5.15;;;3.38;;
48042;SDS011;33988;47.992;8.820;2023-08-24T03:38:20;4.13;;;3.00;;
48042;SDS011;33988;47.992;8.820;2023-08-24T03:40:47;3.42;;;3.13;;
48042;SDS011;33988;47.992;8.820;2023-08-24T03:43:14;3.40;;;3.10;;
48042;SDS011;33988;47.992;8.820;2023-08-24T03:45:41;3.47;;;3.17;;
48042;SDS011;33988;47.992;8.820;2023-08-24T03:48:09;4.32;;;3.30;;
48042;SDS011;33988;47.992;8.820;2023-08-24T03:50:36;4.18;;;2.95;;
48042;SDS011;33988;47.992;8.820;2023-08-24T03:53:06;4.55;;;3.17;;
48042;SDS011;33988;47.992;8.820;2023-08-24T03:55:35;4.57;;;3.30;;
48042;SDS011;33988;47.992;8.820;2023-08-24T03:58:02;5.57;;;3.40;;
48042;SDS011;33988;47.992;8.820;2023-08-24T04:00:29;3.58;;;3.13;;
48042;SDS011;33988;47.992;8.820;2023-08-24T04:02:59;4.38;;;3.30;;
48042;SDS011;33988;47.992;8.820;2023-08-24T04:05:29;4.15;;;3.28;;
48042;SDS011;33988;47.992;8.820;2023-08-24T04:07:56;4.32;;;3.03;;
48042;SDS011;33988;47.992;8.820;2023-08-24T04:10:25;3.75;;;2.90;;
48042;SDS011;33988;47.992;8.820;2023-08-24T04:12:53;3.75;;;2.90;;
48042;SDS011;33988;47.992;8.820;2023-08-24T04:15:20;5.20;;;3.35;;
48042;SDS011;33988;47.992;8.820;2023-08-24T04:17:48;3.10;;;2.80;;
48042;SDS011;33988;47.992;8.820;2023-08-24T04:20:21;3.97;;;3.33;;
48042;SDS011;33988;47.992;8.820;2023-08-24T04:22:51;3.17;;;2.88;;
48042;SDS011;33988;47.992;8.820;2023-08-24T04:25:17;3.25;;;2.95;;
48042;SDS011;33988;47.992;8.820;2023-08-24T04:27:45;3.80;;;2.83;;
48042;SDS011;33988;47.992;8.820;2023-08-24T04:32:42;4.78;;;2.95;;
48042;SDS011;33988;47.992;8.820;2023-08-24T04:35:12;3.92;;;3.15;;
48042;SDS011;33988;47.992;8.820;2023-08-24T04:37:39;5.60;;;3.47;;
48042;SDS011;33988;47.992;8.820;2023-08-24T04:40:06;4.47;;;3.70;;
48042;SDS011;33988;47.992;8.820;2023-08-24T04:42:33;3.00;;;2.78;;
48042;SDS011;33988;47.992;8.820;2023-08-24T04:45:00;3.50;;;3.20;;
48042;SDS011;33988;47.992;8.820;2023-08-24T04:47:27;4.57;;;3.50;;
48042;SDS011;33988;47.992;8.820;2023-08-24T04:49:54;3.42;;;3.10;;
48042;SDS011;33988;47.992;8.820;2023-08-24T04:52:22;3.97;;;3.58;;
48042;SDS011;33988;47.992;8.820;2023-08-24T04:54:49;3.90;;;3.38;;
48042;SDS011;33988;47.992;8.820;2023-08-24T04:57:16;4.18;;;3.47;;
48042;SDS011;33988;47.992;8.820;2023-08-24T04:59:43;4.40;;;3.50;;
48042;SDS011;33988;47.992;8.820;2023-08-24T05:02:10;3.78;;;2.97;;
48042;SDS011;33988;47.992;8.820;2023-08-24T05:04:37;3.95;;;3.42;;
48042;SDS011;33988;47.992;8.820;2023-08-24T05:07:04;7.28;;;3.40;;
48042;SDS011;33988;47.992;8.820;2023-08-24T05:09:31;5.40;;;3.50;;
48042;SDS011;33988;47.992;8.820;2023-08-24T05:11:58;4.75;;;3.75;;
48042;SDS011;33988;47.992;8.820;2023-08-24T05:14:29;6.50;;;3.72;;
48042;SDS011;33988;47.992;8.820;2023-08-24T05:17:01;7.43;;;3.50;;
48042;SDS011;33988;47.992;8.820;2023-08-24T05:19:28;4.68;;;3.53;;
48042;SDS011;33988;47.992;8.820;2023-08-24T05:21:57;4.00;;;3.60;;
48042;SDS011;33988;47.992;8.820;2023-08-24T05:24:26;5.78;;;3.67;;
48042;SDS011;33988;47.992;8.820;2023-08-24T05:26:55;3.85;;;3.50;;
48042;SDS011;33988;47.992;8.820;2023-08-24T05:29:22;4.03;;;3.20;;
48042;SDS011;33988;47.992;8.820;2023-08-24T05:31:49;3.85;;;3.55;;
48042;SDS011;33988;47.992;8.820;2023-08-24T05:34:16;5.22;;;3.50;;
48042;SDS011;33988;47.992;8.820;2023-08-24T05:36:45;3.88;;;3.53;;
48042;SDS011;33988;47.992;8.820;2023-08-24T05:39:12;6.60;;;4.00;;
48042;SDS011;33988;47.992;8.820;2023-08-24T05:41:39;3.53;;;3.22;;
48042;SDS011;33988;47.992;8.820;2023-08-24T05:44:06;3.97;;;3.20;;
48042;SDS011;33988;47.992;8.820;2023-08-24T05:46:35;3.55;;;3.25;;
48042;SDS011;33988;47.992;8.820;2023-08-24T05:49:02;4.43;;;3.28;;
48042;SDS011;33988;47.992;8.820;2023-08-24T05:51:29;3.47;;;3.17;;
48042;SDS011;33988;47.992;8.820;2023-08-24T05:53:56;3.25;;;2.95;;
48042;SDS011;33988;47.992;8.820;2023-08-24T05:56:24;3.80;;;3.40;;
48042;SDS011;33988;47.992;8.820;2023-08-24T05:58:51;5.28;;;3.95;;
48042;SDS011;33988;47.992;8.820;2023-08-24T06:01:20;3.33;;;3.03;;
48042;SDS011;33988;47.992;8.820;2023-08-24T06:03:47;3.58;;;3.28;;
48042;SDS011;33988;47.992;8.820;2023-08-24T06:06:15;3.92;;;3.30;;
48042;SDS011;33988;47.992;8.820;2023-08-24T06:08:43;3.72;;;3.35;;
48042;SDS011;33988;47.992;8.820;2023-08-24T06:11:10;3.33;;;3.03;;
48042;SDS011;33988;47.992;8.820;2023-08-24T06:13:39;5.55;;;3.60;;
48042;SDS011;33988;47.992;8.820;2023-08-24T06:16:06;3.63;;;3.25;;
48042;SDS011;33988;47.992;8.820;2023-08-24T06:18:33;4.18;;;3.50;;
48042;SDS011;33988;47.992;8.820;2023-08-24T06:21:00;4.78;;;3.55;;
48042;SDS011;33988;47.992;8.820;2023-08-24T06:23:27;3.40;;;3.10;;
48042;SDS011;33988;47.992;8.820;2023-08-24T06:25:56;4.07;;;3.22;;
48042;SDS011;33988;47.992;8.820;2023-08-24T06:28:23;4.38;;;3.28;;
48042;SDS011;33988;47.992;8.820;2023-08-24T06:30:50;3.88;;;3.50;;
48042;SDS011;33988;47.992;8.820;2023-08-24T06:33:17;3.92;;;3.53;;
48042;SDS011;33988;47.992;8.820;2023-08-24T06:35:44;4.13;;;3.70;;
48042;SDS011;33988;47.992;8.820;2023-08-24T06:38:12;6.63;;;3.60;;
48042;SDS011;33988;47.992;8.820;2023-08-24T06:40:42;4.15;;;3.67;;
48042;SDS011;33988;47.992;8.820;2023-08-24T06:43:09;5.00;;;3.38;;
48042;SDS011;33988;47.992;8.820;2023-08-24T06:45:39;4.05;;;3.65;;
48042;SDS011;33988;47.992;8.820;2023-08-24T06:48:07;4.32;;;3.88;;
48042;SDS011;33988;47.992;8.820;2023-08-24T06:50:34;3.97;;;3.58;;
48042;SDS011;33988;47.992;8.820;2023-08-24T06:53:05;5.95;;;3.80;;
48042;SDS011;33988;47.992;8.820;2023-08-24T06:55:32;3.80;;;3.42;;
48042;SDS011;33988;47.992;8.820;2023-08-24T06:57:59;5.18;;;3.63;;
48042;SDS011;33988;47.992;8.820;2023-08-24T07:00:31;4.38;;;3.63;;
48042;SDS011;33988;47.992;8.820;2023-08-24T07:02:59;3.80;;;3.50;;
48042;SDS011;33988;47.992;8.820;2023-08-24T07:05:26;3.92;;;3.47;;
48042;SDS011;33988;47.992;8.820;2023-08-24T07:07:53;4.05;;;3.65;;
48042;SDS011;33988;47.992;8.820;2023-08-24T07:10:21;9.40;;;3.97;;
48042;SDS011;33988;47.992;8.820;2023-08-24T07:12:48;5.65;;;3.75;;
48042;SDS011;33988;47.992;8.820;2023-08-24T07:15:17;5.05;;;3.95;;
48042;SDS011;33988;47.992;8.820;2023-08-24T07:17:47;7.47;;;4.30;;
48042;SDS011;33988;47.992;8.820;2023-08-24T07:20:14;4.15;;;3.75;;
48042;SDS011;33988;47.992;8.820;2023-08-24T07:22:42;5.65;;;4.35;;
48042;SDS011;33988;47.992;8.820;2023-08-24T07:25:08;5.63;;;4.32;;
48042;SDS011;33988;47.992;8.820;2023-08-24T07:27:37;5.32;;;4.07;;
48042;SDS011;33988;47.992;8.820;2023-08-24T07:30:04;8.48;;;3.75;;
48042;SDS011;33988;47.992;8.820;2023-08-24T07:32:53;5.85;;;3.35;;
48042;SDS011;33988;47.992;8.820;2023-08-24T07:35:20;4.38;;;3.70;;
48042;SDS011;33988;47.992;8.820;2023-08-24T07:37:50;4.73;;;3.67;;
48042;SDS011;33988;47.992;8.820;2023-08-24T07:40:18;5.07;;;3.35;;
48042;SDS011;33988;47.992;8.820;2023-08-24T07:42:48;4.28;;;3.47;;
48042;SDS011;33988;47.992;8.820;2023-08-24T07:45:21;7.35;;;3.72;;
48042;SDS011;33988;47.992;8.820;2023-08-24T07:47:52;4.13;;;3.73;;
48042;SDS011;33988;47.992;8.820;2023-08-24T07:50:21;4.43;;;3.97;;
48042;SDS011;33988;47.992;8.820;2023-08-24T07:52:52;5.05;;;3.90;;
48042;SDS011;33988;47.992;8.820;2023-08-24T07:55:23;4.00;;;3.60;;
48042;SDS011;33988;47.992;8.820;2023-08-24T07:57:50;4.60;;;3.83;;
48042;SDS011;33988;47.992;8.820;2023-08-24T08:00:21;4.50;;;3.78;;
48042;SDS011;33988;47.992;8.820;2023-08-24T08:02:50;3.80;;;3.33;;
48042;SDS011;33988;47.992;8.820;2023-08-24T08:05:18;5.55;;;4.13;;
48042;SDS011;33988;47.992;8.820;2023-08-24T08:07:45;5.38;;;3.90;;
48042;SDS011;33988;47.992;8.820;2023-08-24T08:10:15;5.07;;;4.25;;
48042;SDS011;33988;47.992;8.820;2023-08-24T08:12:46;4.55;;;3.70;;
48042;SDS011;33988;47.992;8.820;2023-08-24T08:15:13;4.68;;;3.58;;
48042;SDS011;33988;47.992;8.820;2023-08-24T08:17:42;3.80;;;3.42;;
48042;SDS011;33988;47.992;8.820;2023-08-24T08:20:13;4.13;;;3.72;;
48042;SDS011;33988;47.992;8.820;2023-08-24T08:22:41;4.15;;;3.58;;
48042;SDS011;33988;47.992;8.820;2023-08-24T08:25:08;5.20;;;3.92;;
48042;SDS011;33988;47.992;8.820;2023-08-24T08:27:38;4.57;;;4.15;;
48042;SDS011;33988;47.992;8.820;2023-08-24T08:30:08;6.28;;;4.72;;
48042;SDS011;33988;47.992;8.820;2023-08-24T08:32:37;4.47;;;3.95;;
48042;SDS011;33988;47.992;8.820;2023-08-24T08:35:08;5.47;;;3.67;;
48042;SDS011;33988;47.992;8.820;2023-08-24T08:37:35;6.10;;;4.38;;
48042;SDS011;33988;47.992;8.820;2023-08-24T08:40:05;6.40;;;4.00;;
48042;SDS011;33988;47.992;8.820;2023-08-24T08:42:38;4.30;;;3.60;;
48042;SDS011;33988;47.992;8.820;2023-08-24T08:45:10;4.97;;;3.90;;
48042;SDS011;33988;47.992;8.820;2023-08-24T08:47:38;7.27;;;4.50;;
48042;SDS011;33988;47.992;8.820;2023-08-24T08:50:07;4.47;;;4.03;;
48042;SDS011;33988;47.992;8.820;2023-08-24T08:52:36;5.53;;;4.28;;
48042;SDS011;33988;47.992;8.820;2023-08-24T08:55:03;4.28;;;3.88;;
48042;SDS011;33988;47.992;8.820;2023-08-24T08:57:35;9.60;;;4.70;;
48042;SDS011;33988;47.992;8.820;2023-08-24T09:00:03;8.35;;;4.50;;
48042;SDS011;33988;47.992;8.820;2023-08-24T09:02:30;5.93;;;4.10;;
48042;SDS011;33988;47.992;8.820;2023-08-24T09:04:59;5.72;;;4.22;;
48042;SDS011;33988;47.992;8.820;2023-08-24T09:07:26;6.45;;;4.47;;
48042;SDS011;33988;47.992;8.820;2023-08-24T09:09:53;4.97;;;4.18;;
48042;SDS011;33988;47.992;8.820;2023-08-24T09:12:22;4.97;;;4.30;;
48042;SDS011;33988;47.992;8.820;2023-08-24T09:14:52;5.53;;;4.15;;
48042;SDS011;33988;47.992;8.820;2023-08-24T09:17:20;4.85;;;4.10;;
48042;SDS011;33988;47.992;8.820;2023-08-24T09:19:49;6.15;;;4.43;;
48042;SDS011;33988;47.992;8.820;2023-08-24T09:22:18;6.38;;;4.03;;
48042;SDS011;33988;47.992;8.820;2023-08-24T09:24:48;5.32;;;4.22;;
48042;SDS011;33988;47.992;8.820;2023-08-24T09:27:21;5.10;;;4.20;;
48042;SDS011;33988;47.992;8.820;2023-08-24T09:29:49;4.28;;;3.88;;
48042;SDS011;33988;47.992;8.820;2023-08-24T09:32:28;8.50;;;4.20;;
48042;SDS011;33988;47.992;8.820;2023-08-24T09:35:08;5.93;;;4.30;;
48042;SDS011;33988;47.992;8.820;2023-08-24T09:37:38;6.28;;;4.22;;
48042;SDS011;33988;47.992;8.820;2023-08-24T09:40:11;5.53;;;4.53;;
48042;SDS011;33988;47.992;8.820;2023-08-24T09:42:39;4.45;;;4.03;;
48042;SDS011;33988;47.992;8.820;2023-08-24T09:45:11;11.35;;;4.50;;
48042;SDS011;33988;47.992;8.820;2023-08-24T09:47:50;7.53;;;4.50;;
48042;SDS011;33988;47.992;8.820;2023-08-24T09:50:25;5.60;;;4.40;;
48042;SDS011;33988;47.992;8.820;2023-08-24T09:52:53;4.93;;;4.18;;
48042;SDS011;33988;47.992;8.820;2023-08-24T09:55:29;6.85;;;4.65;;
48042;SDS011;33988;47.992;8.820;2023-08-24T09:58:02;7.72;;;4.22;;
48042;SDS011;33988;47.992;8.820;2023-08-24T10:00:32;5.28;;;4.15;;
48042;SDS011;33988;47.992;8.820;2023-08-24T10:03:00;27.85;;;4.93;;
48042;SDS011;33988;47.992;8.820;2023-08-24T10:05:30;4.32;;;3.92;;
48042;SDS011;33988;47.992;8.820;2023-08-24T10:08:10;5.20;;;4.22;;
48042;SDS011;33988;47.992;8.820;2023-08-24T10:10:39;4.20;;;3.80;;
48042;SDS011;33988;47.992;8.820;2023-08-24T10:13:10;6.18;;;4.47;;
48042;SDS011;33988;47.992;8.820;2023-08-24T10:15:46;4.80;;;4.28;;
48042;SDS011;33988;47.992;8.820;2023-08-24T10:18:15;6.85;;;4.32;;
48042;SDS011;33988;47.992;8.820;2023-08-24T10:20:43;6.05;;;4.13;;
48042;SDS011;33988;47.992;8.820;2023-08-24T10:23:12;4.63;;;4.07;;
48042;SDS011;33988;47.992;8.820;2023-08-24T10:25:43;5.75;;;4.10;;
48042;SDS011;33988;47.992;8.820;2023-08-24T10:28:13;6.10;;;4.07;;
48042;SDS011;33988;47.992;8.820;2023-08-24T10:30:42;5.45;;;4.50;;
48042;SDS011;33988;47.992;8.820;2023-08-24T10:33:12;8.27;;;4.13;;
48042;SDS011;33988;47.992;8.820;2023-08-24T10:35:42;5.00;;;4.20;;
48042;SDS011;33988;47.992;8.820;2023-08-24T10:38:21;4.95;;;4.28;;
48042;SDS011;33988;47.992;8.820;2023-08-24T10:40:53;6.03;;;4.18;;
48042;SDS011;33988;47.992;8.820;2023-08-24T10:43:28;5.65;;;4.50;;
48042;SDS011;33988;47.992;8.820;2023-08-24T10:48:27;5.25;;;4.28;;
48042;SDS011;33988;47.992;8.820;2023-08-24T10:53:47;5.05;;;4.13;;
48042;SDS011;33988;47.992;8.820;2023-08-24T10:56:29;4.55;;;4.05;;
48042;SDS011;33988;47.992;8.820;2023-08-24T10:59:11;5.57;;;4.15;;
48042;SDS011;33988;47.992;8.820;2023-08-24T11:04:19;6.15;;;4.50;;
48042;SDS011;33988;47.992;8.820;2023-08-24T11:06:56;6.93;;;4.10;;
48042;SDS011;33988;47.992;8.820;2023-08-24T11:09:25;15.77;;;4.72;;
48042;SDS011;33988;47.992;8.820;2023-08-24T11:11:57;8.73;;;3.88;;
48042;SDS011;33988;47.992;8.820;2023-08-24T11:14:30;6.65;;;4.03;;
48042;SDS011;33988;47.992;8.820;2023-08-24T11:17:16;6.03;;;3.60;;
48042;SDS011;33988;47.992;8.820;2023-08-24T11:19:48;5.82;;;4.00;;
48042;SDS011;33988;47.992;8.820;2023-08-24T11:22:18;5.75;;;3.97;;
48042;SDS011;33988;47.992;8.820;2023-08-24T11:24:45;9.07;;;4.00;;
48042;SDS011;33988;47.992;8.820;2023-08-24T11:27:12;6.70;;;3.90;;
48042;SDS011;33988;47.992;8.820;2023-08-24T11:29:39;6.80;;;3.90;;
48042;SDS011;33988;47.992;8.820;2023-08-24T11:32:06;13.25;;;4.80;;
48042;SDS011;33988;47.992;8.820;2023-08-24T11:34:36;4.50;;;3.85;;
48042;SDS011;33988;47.992;8.820;2023-08-24T11:37:08;5.97;;;3.80;;
48042;SDS011;33988;47.992;8.820;2023-08-24T11:39:46;5.85;;;3.60;;
48042;SDS011;33988;47.992;8.820;2023-08-24T11:42:13;6.30;;;3.78;;
48042;SDS011;33988;47.992;8.820;2023-08-24T11:44:47;9.70;;;4.18;;
48042;SDS011;33988;47.992;8.820;2023-08-24T11:47:20;8.38;;;3.88;;
48042;SDS011;33988;47.992;8.820;2023-08-24T11:49:49;8.05;;;3.55;;
48042;SDS011;33988;47.992;8.820;2023-08-24T11:52:16;6.13;;;3.72;;
48042;SDS011;33988;47.992;8.820;2023-08-24T11:54:43;8.40;;;3.65;;
48042;SDS011;33988;47.992;8.820;2023-08-24T11:57:11;5.95;;;3.58;;
48042;SDS011;33988;47.992;8.820;2023-08-24T11:59:39;5.38;;;3.78;;
48042;SDS011;33988;47.992;8.820;2023-08-24T12:02:09;12.75;;;3.80;;
48042;SDS011;33988;47.992;8.820;2023-08-24T12:04:40;8.60;;;3.38;;
48042;SDS011;33988;47.992;8.820;2023-08-24T12:07:10;8.10;;;4.57;;
48042;SDS011;33988;47.992;8.820;2023-08-24T12:09:41;7.25;;;3.53;;
48042;SDS011;33988;47.992;8.820;2023-08-24T12:12:14;4.90;;;3.60;;
48042;SDS011;33988;47.992;8.820;2023-08-24T12:14:42;4.47;;;3.63;;
48042;SDS011;33988;47.992;8.820;2023-08-24T12:17:14;4.55;;;3.50;;
48042;SDS011;33988;47.992;8.820;2023-08-24T12:19:55;7.88;;;3.67;;
48042;SDS011;33988;47.992;8.820;2023-08-24T12:22:32;9.70;;;3.57;;
48042;SDS011;33988;47.992;8.820;2023-08-24T12:24:59;9.90;;;3.80;;
48042;SDS011;33988;47.992;8.820;2023-08-24T12:27:26;5.35;;;3.40;;
48042;SDS011;33988;47.992;8.820;2023-08-24T12:29:59;5.60;;;3.70;;
48042;SDS011;33988;47.992;8.820;2023-08-24T12:32:46;6.70;;;3.55;;
48042;SDS011;33988;47.992;8.820;2023-08-24T12:35:17;7.13;;;3.55;;
48042;SDS011;33988;47.992;8.820;2023-08-24T12:37:44;6.70;;;3.40;;
48042;SDS011;33988;47.992;8.820;2023-08-24T12:40:12;7.85;;;4.07;;
48042;SDS011;33988;47.992;8.820;2023-08-24T12:42:39;8.88;;;3.40;;
48042;SDS011;33988;47.992;8.820;2023-08-24T12:45:06;6.72;;;3.42;;
48042;SDS011;33988;47.992;8.820;2023-08-24T12:47:34;8.05;;;3.67;;
48042;SDS011;33988;47.992;8.820;2023-08-24T12:50:04;4.73;;;3.30;;
48042;SDS011;33988;47.992;8.820;2023-08-24T12:52:34;4.38;;;3.33;;
48042;SDS011;33988;47.992;8.820;2023-08-24T12:55:01;3.90;;;3.30;;
48042;SDS011;33988;47.992;8.820;2023-08-24T12:57:29;7.38;;;4.03;;
48042;SDS011;33988;47.992;8.820;2023-08-24T12:59:56;9.82;;;3.60;;
48042;SDS011;33988;47.992;8.820;2023-08-24T13:02:24;7.35;;;3.47;;
48042;SDS011;33988;47.992;8.820;2023-08-24T13:05:03;5.28;;;2.90;;
48042;SDS011;33988;47.992;8.820;2023-08-24T13:07:34;5.60;;;3.75;;
48042;SDS011;33988;47.992;8.820;2023-08-24T13:10:03;8.30;;;4.25;;
48042;SDS011;33988;47.992;8.820;2023-08-24T13:12:34;13.05;;;3.60;;
48042;SDS011;33988;47.992;8.820;2023-08-24T13:15:02;6.10;;;3.78;;
48042;SDS011;33988;47.992;8.820;2023-08-24T13:17:30;7.00;;;3.80;;
48042;SDS011;33988;47.992;8.820;2023-08-24T13:19:57;4.53;;;3.55;;
48042;SDS011;33988;47.992;8.820;2023-08-24T13:22:27;5.82;;;3.55;;
48042;SDS011;33988;47.992;8.820;2023-08-24T13:24:56;9.20;;;3.60;;
48042;SDS011;33988;47.992;8.820;2023-08-24T13:27:26;4.75;;;3.35;;
48042;SDS011;33988;47.992;8.820;2023-08-24T13:32:34;4.68;;;3.50;;
48042;SDS011;33988;47.992;8.820;2023-08-24T13:35:04;10.15;;;3.78;;
48042;SDS011;33988;47.992;8.820;2023-08-24T13:37:35;6.53;;;3.83;;
48042;SDS011;33988;47.992;8.820;2023-08-24T13:40:02;8.88;;;4.60;;
48042;SDS011;33988;47.992;8.820;2023-08-24T13:42:33;11.15;;;3.88;;
48042;SDS011;33988;47.992;8.820;2023-08-24T13:45:00;5.45;;;3.58;;
48042;SDS011;33988;47.992;8.820;2023-08-24T13:47:30;6.18;;;3.30;;
48042;SDS011;33988;47.992;8.820;2023-08-24T13:50:02;5.03;;;3.60;;
48042;SDS011;33988;47.992;8.820;2023-08-24T13:52:32;11.50;;;4.07;;
48042;SDS011;33988;47.992;8.820;2023-08-24T13:54:58;8.55;;;3.60;;
48042;SDS011;33988;47.992;8.820;2023-08-24T13:57:38;11.97;;;4.17;;
48042;SDS011;33988;47.992;8.820;2023-08-24T14:00:05;5.25;;;3.42;;
48042;SDS011;33988;47.992;8.820;2023-08-24T14:02:35;9.25;;;3.55;;
48042;SDS011;33988;47.992;8.820;2023-08-24T14:05:05;9.93;;;3.80;;
48042;SDS011;33988;47.992;8.820;2023-08-24T14:10:02;9.73;;;3.05;;
48042;SDS011;33988;47.992;8.820;2023-08-24T14:12:34;6.68;;;3.40;;
48042;SDS011;33988;47.992;8.820;2023-08-24T14:15:03;9.93;;;3.53;;
48042;SDS011;33988;47.992;8.820;2023-08-24T14:17:32;6.88;;;3.20;;
48042;SDS011;33988;47.992;8.820;2023-08-24T14:20:04;5.70;;;3.20;;
48042;SDS011;33988;47.992;8.820;2023-08-24T14:22:35;6.85;;;3.15;;
48042;SDS011;33988;47.992;8.820;2023-08-24T14:25:02;9.63;;;3.55;;
48042;SDS011;33988;47.992;8.820;2023-08-24T14:27:31;4.57;;;2.85;;
48042;SDS011;33988;47.992;8.820;2023-08-24T14:29:58;5.60;;;3.35;;
48042;SDS011;33988;47.992;8.820;2023-08-24T14:32:25;5.03;;;3.15;;
48042;SDS011;33988;47.992;8.820;2023-08-24T14:34:52;7.13;;;3.28;;
48042;SDS011;33988;47.992;8.820;2023-08-24T14:37:19;11.20;;;3.30;;
48042;SDS011;33988;47.992;8.820;2023-08-24T14:39:51;7.38;;;3.25;;
48042;SDS011;33988;47.992;8.820;2023-08-24T14:42:18;7.47;;;3.22;;
48042;SDS011;33988;47.992;8.820;2023-08-24T14:44:45;6.65;;;3.03;;
48042;SDS011;33988;47.992;8.820;2023-08-24T14:47:17;6.25;;;3.20;;
48042;SDS011;33988;47.992;8.820;2023-08-24T14:49:47;12.82;;;6.07;;
48042;SDS011;33988;47.992;8.820;2023-08-24T14:52:14;20.35;;;12.95;;
48042;SDS011;33988;47.992;8.820;2023-08-24T14:54:46;16.10;;;11.48;;
48042;SDS011;33988;47.992;8.820;2023-08-24T14:57:14;11.65;;;6.43;;
48042;SDS011;33988;47.992;8.820;2023-08-24T14:59:41;10.48;;;4.63;;
48042;SDS011;33988;47.992;8.820;2023-08-24T15:02:08;7.13;;;3.60;;
48042;SDS011;33988;47.992;8.820;2023-08-24T15:04:37;7.72;;;3.95;;
48042;SDS011;33988;47.992;8.820;2023-08-24T15:07:04;5.22;;;2.80;;
48042;SDS011;33988;47.992;8.820;2023-08-24T15:09:34;5.93;;;2.75;;
48042;SDS011;33988;47.992;8.820;2023-08-24T15:12:01;9.77;;;3.17;;
48042;SDS011;33988;47.992;8.820;2023-08-24T15:14:29;4.97;;;2.80;;
48042;SDS011;33988;47.992;8.820;2023-08-24T15:16:58;4.97;;;3.25;;
48042;SDS011;33988;47.992;8.820;2023-08-24T15:19:25;8.25;;;3.90;;
48042;SDS011;33988;47.992;8.820;2023-08-24T15:21:55;4.55;;;3.03;;
48042;SDS011;33988;47.992;8.820;2023-08-24T15:24:22;6.35;;;3.10;;
48042;SDS011;33988;47.992;8.820;2023-08-24T15:26:49;7.47;;;2.70;;